createdAt,value
2023-04-09T00:00:15.473Z,10.92
2023-04-09T00:02:44.355Z,10.90
2023-04-09T00:05:12.822Z,10.89
2023-04-09T00:07:43.209Z,10.91
2023-04-09T00:10:12.726Z,10.94
2023-04-09T00:12:41.120Z,10.95
2023-04-09T00:15:20.629Z,10.97
2023-04-09T00:17:57.531Z,10.96
2023-04-09T00:20:27.106Z,10.96
2023-04-09T00:22:56.564Z,10.96
2023-04-09T00:25:25.545Z,10.95
2023-04-09T00:27:53.963Z,10.96
2023-04-09T00:30:23.850Z,10.97
2023-04-09T00:32:53.250Z,10.97
2023-04-09T00:35:22.571Z,10.95
2023-04-09T00:37:51.443Z,10.95
2023-04-09T00:40:19.969Z,10.92
2023-04-09T00:42:49.226Z,10.89
2023-04-09T00:45:17.470Z,10.87
2023-04-09T00:47:48.147Z,10.86
2023-04-09T00:50:17.787Z,10.86
2023-04-09T00:52:46.722Z,10.86
2023-04-09T00:55:15.431Z,10.87
2023-04-09T00:57:43.697Z,10.84
2023-04-09T01:00:14.020Z,10.82
2023-04-09T01:02:42.757Z,10.81
2023-04-09T01:05:13.651Z,10.80
2023-04-09T01:07:58.111Z,10.78
2023-04-09T01:10:38.692Z,10.75
2023-04-09T01:13:13.912Z,10.76
2023-04-09T01:15:49.775Z,10.76
2023-04-09T01:18:26.559Z,10.76
2023-04-09T01:21:04.256Z,10.76
2023-04-09T01:23:44.592Z,10.76
2023-04-09T01:26:32.222Z,10.76
2023-04-09T01:29:03.659Z,10.75
2023-04-09T01:31:39.013Z,10.76
2023-04-09T01:34:10.141Z,10.77
2023-04-09T01:36:41.189Z,10.76
2023-04-09T01:39:10.175Z,10.77
2023-04-09T01:41:39.388Z,10.78
2023-04-09T01:44:10.945Z,10.77
2023-04-09T01:46:41.378Z,10.75
2023-04-09T01:49:11.502Z,10.75
2023-04-09T01:51:40.124Z,10.77
2023-04-09T01:54:08.428Z,10.75
2023-04-09T01:56:44.627Z,10.74
2023-04-09T01:59:15.018Z,10.74
2023-04-09T02:01:47.609Z,10.73
2023-04-09T02:04:24.775Z,10.71
2023-04-09T02:07:04.491Z,10.71
2023-04-09T02:09:35.374Z,10.71
2023-04-09T02:12:08.388Z,10.71
2023-04-09T02:14:39.926Z,10.70
2023-04-09T02:17:08.458Z,10.66
2023-04-09T02:19:41.893Z,10.67
2023-04-09T02:22:11.389Z,10.64
2023-04-09T02:24:40.482Z,10.66
2023-04-09T02:27:10.129Z,10.67
2023-04-09T02:29:41.912Z,10.66
2023-04-09T02:32:10.343Z,10.64
2023-04-09T02:34:38.711Z,10.66
2023-04-09T02:37:07.657Z,10.66
2023-04-09T02:39:36.147Z,10.67
2023-04-09T02:42:04.482Z,10.68
2023-04-09T02:44:33.075Z,10.67
2023-04-09T02:47:03.296Z,10.68
2023-04-09T02:49:31.883Z,10.66
2023-04-09T02:52:00.147Z,10.66
2023-04-09T02:54:28.563Z,10.63
2023-04-09T02:56:57.559Z,10.63
2023-04-09T02:59:29.570Z,10.62
2023-04-09T03:01:57.963Z,10.59
2023-04-09T03:04:28.038Z,10.58
2023-04-09T03:06:56.850Z,10.59
2023-04-09T03:09:25.538Z,10.61
2023-04-09T03:11:53.981Z,10.62
2023-04-09T03:14:29.300Z,10.62
2023-04-09T03:16:58.087Z,10.62
2023-04-09T03:19:28.290Z,10.63
2023-04-09T03:21:57.094Z,10.62
2023-04-09T03:24:26.042Z,10.62
2023-04-09T03:26:54.862Z,10.62
2023-04-09T03:29:23.656Z,10.60
2023-04-09T03:31:52.476Z,10.58
2023-04-09T03:34:21.335Z,10.54
2023-04-09T03:36:51.406Z,10.50
2023-04-09T03:39:19.987Z,10.45
2023-04-09T03:41:48.706Z,10.38
2023-04-09T03:44:16.977Z,10.32
2023-04-09T03:46:45.597Z,10.27
2023-04-09T03:49:14.054Z,10.23
2023-04-09T03:51:42.429Z,10.23
2023-04-09T03:54:12.365Z,10.22
2023-04-09T03:56:44.672Z,10.19
2023-04-09T03:59:13.020Z,10.14
2023-04-09T04:01:41.354Z,10.11
2023-04-09T04:04:09.918Z,10.08
2023-04-09T04:06:38.508Z,10.05
2023-04-09T04:09:06.988Z,10.05
2023-04-09T04:11:36.691Z,10.08
2023-04-09T04:14:04.915Z,10.11
2023-04-09T04:16:33.432Z,10.10
2023-04-09T04:19:01.756Z,10.06
2023-04-09T04:21:30.076Z,10.02
2023-04-09T04:23:58.714Z,9.99
2023-04-09T04:26:28.020Z,9.96
2023-04-09T04:28:57.964Z,9.92
2023-04-09T04:31:27.291Z,9.86
2023-04-09T04:33:55.958Z,9.77
2023-04-09T04:36:25.031Z,9.66
2023-04-09T04:38:53.625Z,9.55
2023-04-09T04:41:23.376Z,9.48
2023-04-09T04:43:52.048Z,9.47
2023-04-09T04:46:30.265Z,9.50
2023-04-09T04:48:58.742Z,9.52
2023-04-09T04:51:28.231Z,9.57
2023-04-09T04:53:57.049Z,9.58
2023-04-09T04:56:26.917Z,9.62
2023-04-09T04:58:55.952Z,9.67
2023-04-09T05:01:26.139Z,9.71
2023-04-09T05:03:55.059Z,9.74
2023-04-09T05:06:23.631Z,9.75
2023-04-09T05:08:52.679Z,9.78
2023-04-09T05:11:21.230Z,9.83
2023-04-09T05:13:49.889Z,9.85
2023-04-09T05:16:18.908Z,9.85
2023-04-09T05:18:50.427Z,9.89
2023-04-09T05:21:18.905Z,9.90
2023-04-09T05:23:47.769Z,9.93
2023-04-09T05:26:16.508Z,9.97
2023-04-09T05:28:44.746Z,10.01
2023-04-09T05:31:13.488Z,10.06
2023-04-09T05:33:42.024Z,10.07
2023-04-09T05:36:17.589Z,10.11
2023-04-09T05:38:48.019Z,10.14
2023-04-09T05:41:16.614Z,10.17
2023-04-09T05:43:44.947Z,10.17
2023-04-09T05:46:13.365Z,10.19
2023-04-09T05:48:41.847Z,10.21
2023-04-09T05:51:11.793Z,10.25
2023-04-09T05:53:40.071Z,10.27
2023-04-09T05:56:15.836Z,10.29
2023-04-09T05:58:44.216Z,10.31
2023-04-09T06:01:12.514Z,10.33
2023-04-09T06:03:41.702Z,10.36
2023-04-09T06:06:11.544Z,10.37
2023-04-09T06:08:39.825Z,10.36
2023-04-09T06:11:11.188Z,10.41
2023-04-09T06:13:40.345Z,10.40
2023-04-09T06:16:10.240Z,10.36
2023-04-09T06:18:38.909Z,10.36
2023-04-09T06:21:08.915Z,10.39
2023-04-09T06:23:38.745Z,10.42
2023-04-09T06:26:07.323Z,10.45
2023-04-09T06:28:36.604Z,10.45
2023-04-09T06:31:05.225Z,10.52
2023-04-09T06:33:33.806Z,10.54
2023-04-09T06:36:02.044Z,10.56
2023-04-09T06:38:30.486Z,10.58
2023-04-09T06:41:00.146Z,10.62
2023-04-09T06:43:28.569Z,10.64
2023-04-09T06:45:57.325Z,10.72
2023-04-09T06:48:26.355Z,10.80
2023-04-09T06:50:55.036Z,10.90
2023-04-09T06:53:23.529Z,10.98
2023-04-09T06:55:53.666Z,11.01
2023-04-09T06:58:24.909Z,11.01
2023-04-09T07:00:53.289Z,11.05
2023-04-09T07:03:22.137Z,11.08
2023-04-09T07:05:51.991Z,11.06
2023-04-09T07:08:23.027Z,11.04
2023-04-09T07:10:52.028Z,11.02
2023-04-09T07:13:23.432Z,11.00
2023-04-09T07:15:53.337Z,11.10
2023-04-09T07:18:23.541Z,11.18
2023-04-09T07:20:53.273Z,11.27
2023-04-09T07:23:22.945Z,11.38
2023-04-09T07:25:52.611Z,11.44
2023-04-09T07:28:22.662Z,11.56
2023-04-09T07:30:53.436Z,11.73
2023-04-09T07:33:22.355Z,11.85
2023-04-09T07:35:51.283Z,11.93
2023-04-09T07:38:19.927Z,11.91
2023-04-09T07:40:48.438Z,11.87
2023-04-09T07:43:18.951Z,11.96
2023-04-09T07:45:52.829Z,12.12
2023-04-09T07:48:21.413Z,12.38
2023-04-09T07:50:50.249Z,12.52
2023-04-09T07:53:19.764Z,12.60
2023-04-09T07:55:48.196Z,12.70
2023-04-09T07:58:17.011Z,12.79
2023-04-09T08:00:45.358Z,12.86
2023-04-09T08:03:15.424Z,13.04
2023-04-09T08:05:44.066Z,13.30
2023-04-09T08:08:14.640Z,13.41
2023-04-09T08:10:43.603Z,13.37
2023-04-09T08:13:12.117Z,13.25
2023-04-09T08:15:40.628Z,13.32
2023-04-09T08:18:09.375Z,13.43
2023-04-09T08:20:44.952Z,13.61
2023-04-09T08:23:13.547Z,13.56
2023-04-09T08:25:41.805Z,13.54
2023-04-09T08:28:10.114Z,13.64
2023-04-09T08:30:38.516Z,13.73
2023-04-09T08:33:07.053Z,13.85
2023-04-09T08:35:35.342Z,14.02
2023-04-09T08:38:04.985Z,14.13
2023-04-09T08:40:36.690Z,14.04
2023-04-09T08:43:07.292Z,13.89
2023-04-09T08:45:35.753Z,13.89
2023-04-09T08:48:05.528Z,14.00
2023-04-09T08:50:34.820Z,14.12
2023-04-09T08:53:08.069Z,14.17
2023-04-09T08:55:37.414Z,14.26
2023-04-09T08:58:07.509Z,14.41
2023-04-09T09:00:35.882Z,14.59
2023-04-09T09:03:08.360Z,14.67
2023-04-09T09:05:41.292Z,14.68
2023-04-09T09:08:13.777Z,14.79
2023-04-09T09:10:44.371Z,14.94
2023-04-09T09:13:21.365Z,15.00
2023-04-09T09:15:55.137Z,15.07
2023-04-09T09:18:39.235Z,15.25
2023-04-09T09:21:15.885Z,15.51
2023-04-09T09:23:45.950Z,15.63
2023-04-09T09:26:16.483Z,15.56
2023-04-09T09:28:45.562Z,15.42
2023-04-09T09:31:14.996Z,15.39
2023-04-09T09:33:43.595Z,15.47
2023-04-09T09:36:12.106Z,15.55
2023-04-09T09:38:56.299Z,15.82
2023-04-09T09:41:26.193Z,16.09
2023-04-09T09:43:55.082Z,16.13
2023-04-09T09:46:26.509Z,16.15
2023-04-09T09:48:58.311Z,16.28
2023-04-09T09:51:28.944Z,16.34
2023-04-09T09:53:59.399Z,16.61
2023-04-09T09:56:37.046Z,16.77
2023-04-09T09:59:12.291Z,16.94
2023-04-09T10:01:41.934Z,17.20
2023-04-09T10:04:15.821Z,17.17
2023-04-09T10:06:46.464Z,17.20
2023-04-09T10:09:17.361Z,17.25
2023-04-09T10:11:48.271Z,17.28
2023-04-09T10:14:17.838Z,17.35
2023-04-09T10:16:46.296Z,17.26
2023-04-09T10:19:15.315Z,17.07
2023-04-09T10:21:55.006Z,17.13
2023-04-09T10:24:25.220Z,17.32
2023-04-09T10:26:57.240Z,17.59
2023-04-09T10:29:29.979Z,17.69
2023-04-09T10:32:07.183Z,17.63
2023-04-09T10:34:39.287Z,17.94
2023-04-09T10:37:10.709Z,18.46
2023-04-09T10:39:46.253Z,18.76
2023-04-09T10:42:22.156Z,18.77
2023-04-09T10:45:08.258Z,18.99
2023-04-09T10:47:39.543Z,19.29
2023-04-09T10:50:26.921Z,19.16
2023-04-09T10:52:57.484Z,18.95
2023-04-09T10:55:37.389Z,19.02
2023-04-09T10:58:09.747Z,19.34
2023-04-09T11:00:42.101Z,19.41
2023-04-09T11:03:30.571Z,19.48
2023-04-09T11:06:06.184Z,19.72
2023-04-09T11:08:35.510Z,19.69
2023-04-09T11:11:06.019Z,19.60
2023-04-09T11:13:36.220Z,19.69
2023-04-09T11:16:07.206Z,19.76
2023-04-09T11:18:37.176Z,19.69
2023-04-09T11:21:05.952Z,19.51
2023-04-09T11:23:36.742Z,19.28
2023-04-09T11:26:07.264Z,19.30
2023-04-09T11:28:38.508Z,19.33
2023-04-09T11:31:07.461Z,19.34
2023-04-09T11:33:36.206Z,19.53
2023-04-09T11:36:07.681Z,19.78
2023-04-09T11:38:38.075Z,19.73
2023-04-09T11:41:12.675Z,19.73
2023-04-09T11:43:41.190Z,19.65
2023-04-09T11:46:10.464Z,19.48
2023-04-09T11:48:38.992Z,19.52
2023-04-09T11:51:07.610Z,19.95
2023-04-09T11:53:38.985Z,20.34
2023-04-09T11:56:09.129Z,20.64
2023-04-09T11:58:37.615Z,21.03
2023-04-09T12:01:06.199Z,21.12
2023-04-09T12:03:37.480Z,21.20
2023-04-09T12:06:09.364Z,21.66
2023-04-09T12:08:38.373Z,22.27
2023-04-09T12:11:16.655Z,22.62
2023-04-09T12:13:45.157Z,22.89
2023-04-09T12:16:14.122Z,23.19
2023-04-09T12:18:42.609Z,23.42
2023-04-09T12:21:11.254Z,23.84
2023-04-09T12:23:39.589Z,24.13
2023-04-09T12:26:08.172Z,23.98
2023-04-09T12:28:37.941Z,24.11
2023-04-09T12:31:06.392Z,24.35
2023-04-09T12:33:34.653Z,24.40
2023-04-09T12:36:02.900Z,24.75
2023-04-09T12:38:31.600Z,25.29
2023-04-09T12:41:01.428Z,25.63
2023-04-09T12:43:30.039Z,25.53
2023-04-09T12:46:00.312Z,24.86
2023-04-09T12:48:28.634Z,24.12
2023-04-09T12:50:57.538Z,23.96
2023-04-09T12:53:26.374Z,24.29
2023-04-09T12:55:55.246Z,24.32
2023-04-09T12:58:23.568Z,24.55
2023-04-09T13:00:54.721Z,24.56
2023-04-09T13:03:25.328Z,24.94
2023-04-09T13:05:53.841Z,25.78
2023-04-09T13:08:22.585Z,26.76
2023-04-09T13:10:51.746Z,27.19
2023-04-09T13:13:20.122Z,27.62
2023-04-09T13:15:50.966Z,27.66
2023-04-09T13:18:20.067Z,27.19
2023-04-09T13:20:50.222Z,26.26
2023-04-09T13:23:18.527Z,25.31
2023-04-09T13:25:46.839Z,24.68
2023-04-09T13:28:15.192Z,25.49
2023-04-09T13:30:43.756Z,26.62
2023-04-09T13:33:12.164Z,27.31
2023-04-09T13:35:40.604Z,27.73
2023-04-09T13:38:10.359Z,27.85
2023-04-09T13:40:39.339Z,27.93
2023-04-09T13:43:07.684Z,28.22
2023-04-09T13:45:36.504Z,28.90
2023-04-09T13:48:05.145Z,29.38
2023-04-09T13:50:33.461Z,29.83
2023-04-09T13:53:05.238Z,30.27
2023-04-09T13:55:34.975Z,30.49
2023-04-09T13:58:03.264Z,30.90
2023-04-09T14:00:32.521Z,31.38
2023-04-09T14:03:03.042Z,31.58
2023-04-09T14:05:32.322Z,31.96
2023-04-09T14:08:00.802Z,32.18
2023-04-09T14:10:29.176Z,32.40
2023-04-09T14:12:58.834Z,32.73
2023-04-09T14:15:28.153Z,33.06
2023-04-09T14:17:56.895Z,33.39
2023-04-09T14:20:26.036Z,33.61
2023-04-09T14:22:54.477Z,33.81
2023-04-09T14:25:23.574Z,33.78
2023-04-09T14:27:52.267Z,34.01
2023-04-09T14:30:22.503Z,33.58
2023-04-09T14:32:51.427Z,33.51
2023-04-09T14:35:20.165Z,33.82
2023-04-09T14:37:48.672Z,34.27
2023-04-09T14:40:16.835Z,34.44
2023-04-09T14:42:46.568Z,34.67
2023-04-09T14:45:14.867Z,34.74
2023-04-09T14:47:44.915Z,34.31
2023-04-09T14:50:13.219Z,34.23
2023-04-09T14:52:42.054Z,34.37
2023-04-09T14:55:12.427Z,34.45
2023-04-09T14:57:42.125Z,34.47
2023-04-09T15:00:13.109Z,34.73
2023-04-09T15:02:41.852Z,34.78
2023-04-09T15:05:14.485Z,35.00
2023-04-09T15:07:43.651Z,34.75
2023-04-09T15:10:12.880Z,34.87
2023-04-09T15:12:41.132Z,35.14
2023-04-09T15:15:11.353Z,35.40
2023-04-09T15:17:39.699Z,35.75
2023-04-09T15:20:09.494Z,36.03
2023-04-09T15:22:39.153Z,35.91
2023-04-09T15:25:08.660Z,35.74
2023-04-09T15:27:37.036Z,35.63
2023-04-09T15:30:07.151Z,35.80
2023-04-09T15:32:35.428Z,35.94
2023-04-09T15:35:03.896Z,36.00
2023-04-09T15:37:32.652Z,35.90
2023-04-09T15:40:02.285Z,35.60
2023-04-09T15:42:30.929Z,34.81
2023-04-09T15:44:59.165Z,34.53
2023-04-09T15:47:29.620Z,34.56
2023-04-09T15:49:59.870Z,34.41
2023-04-09T15:52:30.272Z,34.00
2023-04-09T15:54:58.925Z,33.23
2023-04-09T15:57:29.104Z,31.37
2023-04-09T15:59:57.723Z,29.58
2023-04-09T16:02:26.645Z,28.14
2023-04-09T16:04:55.296Z,27.79
2023-04-09T16:07:23.553Z,28.73
2023-04-09T16:09:52.431Z,29.68
2023-04-09T16:12:23.442Z,30.34
2023-04-09T16:14:55.210Z,30.79
2023-04-09T16:17:24.294Z,31.21
2023-04-09T16:19:53.263Z,30.98
2023-04-09T16:22:22.363Z,30.88
2023-04-09T16:24:51.250Z,30.63
2023-04-09T16:27:19.930Z,30.36
2023-04-09T16:29:48.806Z,29.51
2023-04-09T16:32:18.591Z,29.71
2023-04-09T16:34:47.488Z,30.33
2023-04-09T16:37:15.810Z,30.66
2023-04-09T16:39:44.394Z,30.29
2023-04-09T16:42:12.802Z,29.88
2023-04-09T16:44:41.762Z,29.86
2023-04-09T16:47:10.044Z,28.74
2023-04-09T16:49:40.009Z,27.01
2023-04-09T16:52:08.328Z,25.52
2023-04-09T16:54:36.615Z,24.88
2023-04-09T16:57:05.104Z,25.71
2023-04-09T16:59:33.475Z,26.63
2023-04-09T17:02:01.938Z,27.26
2023-04-09T17:04:31.613Z,27.55
2023-04-09T17:07:01.552Z,27.57
2023-04-09T17:09:30.052Z,27.17
2023-04-09T17:11:58.986Z,26.73
2023-04-09T17:14:27.880Z,26.49
2023-04-09T17:16:56.850Z,26.30
2023-04-09T17:19:25.570Z,26.07
2023-04-09T17:21:53.990Z,25.69
2023-04-09T17:24:24.534Z,25.28
2023-04-09T17:26:53.824Z,24.91
2023-04-09T17:29:22.656Z,24.65
2023-04-09T17:31:53.083Z,24.39
2023-04-09T17:34:21.593Z,24.31
2023-04-09T17:36:56.579Z,24.34
2023-04-09T17:39:26.739Z,24.27
2023-04-09T17:41:56.584Z,23.87
2023-04-09T17:44:26.500Z,23.23
2023-04-09T17:46:55.317Z,22.50
2023-04-09T17:49:25.332Z,21.84
2023-04-09T17:51:53.763Z,21.47
2023-04-09T17:54:22.710Z,21.07
2023-04-09T17:56:57.538Z,20.57
2023-04-09T17:59:26.412Z,20.06
2023-04-09T18:01:57.229Z,19.59
2023-04-09T18:04:26.674Z,19.13
2023-04-09T18:06:56.635Z,18.68
2023-04-09T18:09:25.279Z,18.26
2023-04-09T18:11:56.561Z,17.87
2023-04-09T18:14:25.448Z,17.54
2023-04-09T18:16:53.810Z,17.22
2023-04-09T18:19:22.558Z,16.91
2023-04-09T18:21:51.732Z,16.63
2023-04-09T18:24:20.290Z,16.37
2023-04-09T18:26:49.116Z,16.14
2023-04-09T18:29:18.956Z,15.92
2023-04-09T18:31:47.356Z,15.72
2023-04-09T18:34:15.836Z,15.52
2023-04-09T18:36:44.130Z,15.36
2023-04-09T18:39:12.403Z,15.20
2023-04-09T18:41:41.313Z,15.04
2023-04-09T18:44:09.689Z,14.90
2023-04-09T18:46:39.759Z,14.77
2023-04-09T18:49:08.229Z,14.65
2023-04-09T18:51:36.796Z,14.52
2023-04-09T18:54:05.832Z,14.41
2023-04-09T18:56:34.511Z,14.30
2023-04-09T18:59:03.088Z,14.17
2023-04-09T19:01:31.618Z,14.07
2023-04-09T19:04:01.708Z,13.94
2023-04-09T19:06:30.543Z,13.85
2023-04-09T19:08:59.252Z,13.75
2023-04-09T19:11:29.047Z,13.66
2023-04-09T19:13:58.570Z,13.60
2023-04-09T19:16:28.661Z,13.51
2023-04-09T19:18:58.166Z,13.42
2023-04-09T19:21:29.180Z,13.33
2023-04-09T19:24:00.186Z,13.25
2023-04-09T19:26:28.876Z,13.18
2023-04-09T19:28:58.107Z,13.11
2023-04-09T19:31:27.040Z,13.04
2023-04-09T19:33:55.664Z,12.94
2023-04-09T19:36:24.541Z,12.85
2023-04-09T19:38:54.360Z,12.76
2023-04-09T19:41:23.481Z,12.68
2023-04-09T19:43:51.817Z,12.61
2023-04-09T19:46:21.714Z,12.53
2023-04-09T19:48:50.403Z,12.46
2023-04-09T19:51:20.486Z,12.39
2023-04-09T19:53:49.322Z,12.32
2023-04-09T19:56:21.472Z,12.26
2023-04-09T19:58:49.690Z,12.18
2023-04-09T20:01:17.971Z,12.11
2023-04-09T20:03:47.231Z,12.07
2023-04-09T20:06:15.762Z,12.03
2023-04-09T20:08:44.561Z,11.98
2023-04-09T20:11:19.309Z,11.91
2023-04-09T20:13:48.159Z,11.86
2023-04-09T20:16:16.616Z,11.81
2023-04-09T20:18:44.969Z,11.75
2023-04-09T20:21:14.452Z,11.68
2023-04-09T20:23:45.351Z,11.63
2023-04-09T20:26:13.873Z,11.59
2023-04-09T20:28:43.651Z,11.53
2023-04-09T20:31:13.446Z,11.49
2023-04-09T20:33:41.877Z,11.43
2023-04-09T20:36:16.773Z,11.39
2023-04-09T20:38:45.352Z,11.37
2023-04-09T20:41:13.661Z,11.34
2023-04-09T20:43:43.327Z,11.30
2023-04-09T20:46:12.029Z,11.26
2023-04-09T20:48:40.727Z,11.22
2023-04-09T20:51:11.356Z,11.18
2023-04-09T20:53:40.275Z,11.14
2023-04-09T20:56:09.556Z,11.10
2023-04-09T20:58:39.262Z,11.06
2023-04-09T21:01:11.006Z,11.06
2023-04-09T21:03:42.709Z,11.02
2023-04-09T21:06:12.349Z,10.99
2023-04-09T21:08:42.732Z,10.97
2023-04-09T21:11:11.369Z,10.95
2023-04-09T21:13:53.124Z,10.92
2023-04-09T21:16:26.422Z,10.90
2023-04-09T21:18:55.618Z,10.88
2023-04-09T21:21:24.307Z,10.85
2023-04-09T21:23:52.936Z,10.82
2023-04-09T21:26:21.742Z,10.81
2023-04-09T21:28:51.605Z,10.79
2023-04-09T21:31:20.695Z,10.76
2023-04-09T21:33:50.653Z,10.74
2023-04-09T21:36:18.969Z,10.70
2023-04-09T21:38:47.201Z,10.68
2023-04-09T21:41:15.906Z,10.66
2023-04-09T21:43:44.274Z,10.61
2023-04-09T21:46:12.935Z,10.57
2023-04-09T21:48:41.473Z,10.55
2023-04-09T21:51:12.786Z,10.51
2023-04-09T21:53:41.309Z,10.48
2023-04-09T21:56:10.420Z,10.43
2023-04-09T21:58:38.772Z,10.39
2023-04-09T22:01:15.819Z,10.35
2023-04-09T22:03:51.455Z,10.31
2023-04-09T22:06:21.829Z,10.28
2023-04-09T22:08:56.402Z,10.23
2023-04-09T22:11:28.489Z,10.20
2023-04-09T22:13:58.546Z,10.15
2023-04-09T22:16:28.264Z,10.11
2023-04-09T22:18:57.175Z,10.08
2023-04-09T22:21:30.122Z,10.03
2023-04-09T22:23:58.722Z,9.99
2023-04-09T22:26:28.210Z,9.96
2023-04-09T22:28:56.872Z,9.93
2023-04-09T22:31:25.767Z,9.89
2023-04-09T22:33:54.202Z,9.87
2023-04-09T22:36:23.993Z,9.86
2023-04-09T22:38:53.946Z,9.84
2023-04-09T22:41:23.233Z,9.80
2023-04-09T22:43:52.562Z,9.77
2023-04-09T22:46:22.414Z,9.75
2023-04-09T22:48:51.817Z,9.72
2023-04-09T22:51:20.529Z,9.69
2023-04-09T22:53:48.960Z,9.68
2023-04-09T22:56:19.532Z,9.66
2023-04-09T22:58:48.054Z,9.65
2023-04-09T23:01:21.903Z,9.63
2023-04-09T23:03:51.775Z,9.61
2023-04-09T23:06:20.716Z,9.58
2023-04-09T23:08:49.390Z,9.55
2023-04-09T23:11:19.240Z,9.54
2023-04-09T23:13:47.610Z,9.52
2023-04-09T23:16:16.276Z,9.48
2023-04-09T23:18:45.651Z,9.47
2023-04-09T23:21:14.134Z,9.43
2023-04-09T23:23:42.496Z,9.41
2023-04-09T23:26:11.108Z,9.39
2023-04-09T23:28:40.984Z,9.38
2023-04-09T23:31:10.210Z,9.36
2023-04-09T23:33:38.561Z,9.33
2023-04-09T23:36:07.997Z,9.32
2023-04-09T23:38:36.314Z,9.30
2023-04-09T23:41:04.790Z,9.28
2023-04-09T23:43:33.255Z,9.27
2023-04-09T23:46:03.118Z,9.26
2023-04-09T23:48:31.511Z,9.26
2023-04-09T23:50:59.984Z,9.25
2023-04-09T23:53:32.378Z,9.24
2023-04-09T23:56:00.750Z,9.23
2023-04-09T23:58:29.230Z,9.21
